sensor_id;sensor_type;location;lat;lon;timestamp;pressure;altitude;pressure_sealevel;temperature;humidity
84755;BME280;74980;50.776;-3.082;2024-01-11T00:02:18;102458.80;;;21.70;28.41
84755;BME280;74980;50.776;-3.082;2024-01-11T00:04:44;102462.01;;;22.04;28.14
84755;BME280;74980;50.776;-3.082;2024-01-11T00:07:09;102455.10;;;21.82;28.12
84755;BME280;74980;50.776;-3.082;2024-01-11T00:09:38;102453.41;;;22.10;27.93
84755;BME280;74980;50.776;-3.082;2024-01-11T00:12:00;102454.14;;;21.59;28.11
84755;BME280;74980;50.776;-3.082;2024-01-11T00:14:26;102455.09;;;21.89;27.90
84755;BME280;74980;50.776;-3.082;2024-01-11T00:16:51;102457.18;;;22.06;28.02
84755;BME280;74980;50.776;-3.082;2024-01-11T00:19:17;102455.47;;;21.85;27.88
84755;BME280;74980;50.776;-3.082;2024-01-11T00:21:42;102449.50;;;22.07;27.41
84755;BME280;74980;50.776;-3.082;2024-01-11T00:24:08;102455.01;;;21.84;27.92
84755;BME280;74980;50.776;-3.082;2024-01-11T00:26:33;102453.54;;;22.13;27.62
84755;BME280;74980;50.776;-3.082;2024-01-11T00:28:59;102457.96;;;22.21;27.57
84755;BME280;74980;50.776;-3.082;2024-01-11T00:31:24;102462.20;;;22.62;27.52
84755;BME280;74980;50.776;-3.082;2024-01-11T00:33:50;102462.06;;;22.51;27.50
84755;BME280;74980;50.776;-3.082;2024-01-11T00:36:20;102464.61;;;21.92;27.59
84755;BME280;74980;50.776;-3.082;2024-01-11T00:38:41;102466.48;;;22.12;27.59
84755;BME280;74980;50.776;-3.082;2024-01-11T00:41:07;102463.30;;;22.30;27.43
84755;BME280;74980;50.776;-3.082;2024-01-11T00:43:33;102465.42;;;22.21;27.25
84755;BME280;74980;50.776;-3.082;2024-01-11T00:45:58;102467.97;;;22.19;27.14
84755;BME280;74980;50.776;-3.082;2024-01-11T00:48:23;102467.39;;;22.04;27.41
84755;BME280;74980;50.776;-3.082;2024-01-11T00:50:49;102472.77;;;22.13;27.16
84755;BME280;74980;50.776;-3.082;2024-01-11T00:53:14;102479.48;;;22.47;27.28
84755;BME280;74980;50.776;-3.082;2024-01-11T00:55:40;102478.34;;;22.41;26.75
84755;BME280;74980;50.776;-3.082;2024-01-11T00:58:05;102487.66;;;22.12;27.32
84755;BME280;74980;50.776;-3.082;2024-01-11T01:00:31;102484.96;;;22.45;27.07
84755;BME280;74980;50.776;-3.082;2024-01-11T01:02:57;102497.84;;;22.27;27.20
84755;BME280;74980;50.776;-3.082;2024-01-11T01:05:22;102501.03;;;22.13;27.01
84755;BME280;74980;50.776;-3.082;2024-01-11T01:07:47;102498.68;;;22.28;26.72
84755;BME280;74980;50.776;-3.082;2024-01-11T01:10:13;102501.58;;;22.26;26.83
84755;BME280;74980;50.776;-3.082;2024-01-11T01:12:38;102504.35;;;22.58;26.72
84755;BME280;74980;50.776;-3.082;2024-01-11T01:15:04;102509.20;;;22.11;26.94
84755;BME280;74980;50.776;-3.082;2024-01-11T01:17:30;102514.29;;;22.15;26.92
84755;BME280;74980;50.776;-3.082;2024-01-11T01:19:55;102512.27;;;22.13;26.86
84755;BME280;74980;50.776;-3.082;2024-01-11T01:22:21;102514.31;;;22.29;26.15
84755;BME280;74980;50.776;-3.082;2024-01-11T01:24:46;102520.55;;;22.53;27.01
84755;BME280;74980;50.776;-3.082;2024-01-11T01:27:12;102523.78;;;22.11;26.80
84755;BME280;74980;50.776;-3.082;2024-01-11T01:29:37;102525.53;;;22.02;27.10
84755;BME280;74980;50.776;-3.082;2024-01-11T01:32:03;102523.72;;;21.93;27.26
84755;BME280;74980;50.776;-3.082;2024-01-11T01:34:30;102532.31;;;22.09;27.05
84755;BME280;74980;50.776;-3.082;2024-01-11T01:36:54;102528.45;;;22.12;27.09
84755;BME280;74980;50.776;-3.082;2024-01-11T01:39:20;102528.05;;;21.79;27.15
84755;BME280;74980;50.776;-3.082;2024-01-11T01:41:45;102526.13;;;21.81;27.20
84755;BME280;74980;50.776;-3.082;2024-01-11T01:44:11;102531.30;;;22.08;27.29
84755;BME280;74980;50.776;-3.082;2024-01-11T01:46:36;102532.01;;;22.11;26.86
84755;BME280;74980;50.776;-3.082;2024-01-11T01:49:03;102531.00;;;22.13;26.91
84755;BME280;74980;50.776;-3.082;2024-01-11T01:51:29;102530.62;;;22.07;27.09
84755;BME280;74980;50.776;-3.082;2024-01-11T01:53:53;102524.91;;;21.86;26.92
84755;BME280;74980;50.776;-3.082;2024-01-11T01:56:18;102529.66;;;22.11;27.10
84755;BME280;74980;50.776;-3.082;2024-01-11T01:58:44;102528.43;;;21.93;27.10
84755;BME280;74980;50.776;-3.082;2024-01-11T02:01:09;102534.86;;;21.94;27.20
84755;BME280;74980;50.776;-3.082;2024-01-11T02:03:35;102544.24;;;21.97;27.27
84755;BME280;74980;50.776;-3.082;2024-01-11T02:06:01;102543.63;;;21.97;27.42
84755;BME280;74980;50.776;-3.082;2024-01-11T02:08:26;102550.97;;;21.67;27.62
84755;BME280;74980;50.776;-3.082;2024-01-11T02:10:52;102552.92;;;22.22;27.37
84755;BME280;74980;50.776;-3.082;2024-01-11T02:13:17;102567.01;;;22.24;27.45
84755;BME280;74980;50.776;-3.082;2024-01-11T02:15:43;102570.12;;;22.00;27.36
84755;BME280;74980;50.776;-3.082;2024-01-11T02:18:08;102574.70;;;22.31;27.13
84755;BME280;74980;50.776;-3.082;2024-01-11T02:20:34;102584.99;;;22.23;27.28
84755;BME280;74980;50.776;-3.082;2024-01-11T02:23:03;102581.66;;;22.17;27.57
84755;BME280;74980;50.776;-3.082;2024-01-11T02:25:25;102589.50;;;21.99;27.52
84755;BME280;74980;50.776;-3.082;2024-01-11T02:27:51;102593.97;;;21.88;27.74
84755;BME280;74980;50.776;-3.082;2024-01-11T02:30:16;102594.43;;;21.87;27.20
84755;BME280;74980;50.776;-3.082;2024-01-11T02:32:42;102600.32;;;22.05;27.07
84755;BME280;74980;50.776;-3.082;2024-01-11T02:35:07;102597.93;;;21.60;27.69
84755;BME280;74980;50.776;-3.082;2024-01-11T02:37:32;102607.53;;;21.45;27.75
84755;BME280;74980;50.776;-3.082;2024-01-11T02:39:58;102615.68;;;21.31;27.76
84755;BME280;74980;50.776;-3.082;2024-01-11T02:42:23;102614.24;;;21.04;28.29
84755;BME280;74980;50.776;-3.082;2024-01-11T02:44:49;102618.31;;;21.19;28.49
84755;BME280;74980;50.776;-3.082;2024-01-11T02:47:14;102621.02;;;21.02;28.50
84755;BME280;74980;50.776;-3.082;2024-01-11T02:49:40;102630.19;;;21.03;28.79
84755;BME280;74980;50.776;-3.082;2024-01-11T02:52:06;102627.64;;;21.13;28.21
84755;BME280;74980;50.776;-3.082;2024-01-11T02:54:31;102632.56;;;21.15;28.64
84755;BME280;74980;50.776;-3.082;2024-01-11T02:56:56;102635.72;;;21.30;28.42
84755;BME280;74980;50.776;-3.082;2024-01-11T02:59:22;102635.61;;;21.19;28.65
84755;BME280;74980;50.776;-3.082;2024-01-11T03:01:48;102640.55;;;20.84;28.73
84755;BME280;74980;50.776;-3.082;2024-01-11T03:04:13;102641.02;;;21.14;28.89
84755;BME280;74980;50.776;-3.082;2024-01-11T03:06:39;102644.54;;;21.57;29.25
84755;BME280;74980;50.776;-3.082;2024-01-11T03:09:04;102647.21;;;21.63;28.72
84755;BME280;74980;50.776;-3.082;2024-01-11T03:11:30;102646.80;;;21.79;28.26
84755;BME280;74980;50.776;-3.082;2024-01-11T03:13:55;102652.97;;;22.12;28.10
84755;BME280;74980;50.776;-3.082;2024-01-11T03:16:21;102657.42;;;21.69;27.84
84755;BME280;74980;50.776;-3.082;2024-01-11T03:18:46;102659.23;;;21.89;27.99
84755;BME280;74980;50.776;-3.082;2024-01-11T03:21:12;102659.28;;;22.20;27.87
84755;BME280;74980;50.776;-3.082;2024-01-11T03:23:37;102659.80;;;21.59;27.99
84755;BME280;74980;50.776;-3.082;2024-01-11T03:26:03;102663.96;;;21.77;27.95
84755;BME280;74980;50.776;-3.082;2024-01-11T03:28:29;102665.37;;;21.96;27.89
84755;BME280;74980;50.776;-3.082;2024-01-11T03:30:54;102665.49;;;21.76;27.84
84755;BME280;74980;50.776;-3.082;2024-01-11T03:33:20;102667.62;;;22.34;27.66
84755;BME280;74980;50.776;-3.082;2024-01-11T03:35:45;102667.15;;;22.02;27.73
84755;BME280;74980;50.776;-3.082;2024-01-11T03:38:11;102665.15;;;22.04;27.57
84755;BME280;74980;50.776;-3.082;2024-01-11T03:40:36;102667.77;;;22.27;27.51
84755;BME280;74980;50.776;-3.082;2024-01-11T03:43:02;102672.26;;;22.09;27.31
84755;BME280;74980;50.776;-3.082;2024-01-11T03:45:27;102672.09;;;22.20;27.39
84755;BME280;74980;50.776;-3.082;2024-01-11T03:47:53;102674.29;;;21.87;27.36
84755;BME280;74980;50.776;-3.082;2024-01-11T03:50:18;102678.64;;;22.30;27.23
84755;BME280;74980;50.776;-3.082;2024-01-11T03:52:44;102679.56;;;22.20;27.36
84755;BME280;74980;50.776;-3.082;2024-01-11T03:55:10;102679.57;;;22.01;27.15
84755;BME280;74980;50.776;-3.082;2024-01-11T03:57:35;102684.28;;;21.87;27.36
84755;BME280;74980;50.776;-3.082;2024-01-11T04:00:01;102684.89;;;22.51;27.12
84755;BME280;74980;50.776;-3.082;2024-01-11T04:02:26;102683.31;;;22.09;27.13
84755;BME280;74980;50.776;-3.082;2024-01-11T04:04:52;102684.48;;;22.20;27.18
84755;BME280;74980;50.776;-3.082;2024-01-11T04:07:17;102683.05;;;22.50;27.20
84755;BME280;74980;50.776;-3.082;2024-01-11T04:09:43;102685.30;;;22.03;27.04
84755;BME280;74980;50.776;-3.082;2024-01-11T04:12:09;102692.33;;;22.05;26.77
84755;BME280;74980;50.776;-3.082;2024-01-11T04:14:37;102695.07;;;21.45;27.57
84755;BME280;74980;50.776;-3.082;2024-01-11T04:16:59;102697.12;;;21.43;27.72
84755;BME280;74980;50.776;-3.082;2024-01-11T04:19:25;102699.25;;;21.63;27.89
84755;BME280;74980;50.776;-3.082;2024-01-11T04:21:51;102698.12;;;21.56;28.18
84755;BME280;74980;50.776;-3.082;2024-01-11T04:24:16;102701.44;;;21.44;28.07
84755;BME280;74980;50.776;-3.082;2024-01-11T04:26:42;102700.16;;;21.18;28.31
84755;BME280;74980;50.776;-3.082;2024-01-11T04:29:07;102700.07;;;21.43;28.11
84755;BME280;74980;50.776;-3.082;2024-01-11T04:31:32;102700.79;;;21.38;28.56
84755;BME280;74980;50.776;-3.082;2024-01-11T04:33:58;102703.23;;;21.10;28.56
84755;BME280;74980;50.776;-3.082;2024-01-11T04:36:24;102697.56;;;21.33;28.61
84755;BME280;74980;50.776;-3.082;2024-01-11T04:38:49;102706.72;;;21.34;28.28
84755;BME280;74980;50.776;-3.082;2024-01-11T04:41:15;102708.60;;;21.47;28.51
84755;BME280;74980;50.776;-3.082;2024-01-11T04:43:41;102709.68;;;21.36;28.74
84755;BME280;74980;50.776;-3.082;2024-01-11T04:48:31;102714.02;;;21.74;28.75
84755;BME280;74980;50.776;-3.082;2024-01-11T04:50:57;102718.38;;;21.85;28.52
84755;BME280;74980;50.776;-3.082;2024-01-11T04:53:22;102718.87;;;21.80;28.21
84755;BME280;74980;50.776;-3.082;2024-01-11T04:55:48;102717.65;;;22.13;27.93
84755;BME280;74980;50.776;-3.082;2024-01-11T04:58:13;102716.68;;;22.20;27.96
84755;BME280;74980;50.776;-3.082;2024-01-11T05:00:39;102717.69;;;21.97;28.24
84755;BME280;74980;50.776;-3.082;2024-01-11T05:03:05;102721.98;;;22.17;27.90
84755;BME280;74980;50.776;-3.082;2024-01-11T05:05:30;102725.80;;;22.00;27.82
84755;BME280;74980;50.776;-3.082;2024-01-11T05:07:56;102727.84;;;21.80;27.62
84755;BME280;74980;50.776;-3.082;2024-01-11T05:10:21;102723.50;;;22.06;26.86
84755;BME280;74980;50.776;-3.082;2024-01-11T05:12:47;102726.95;;;21.97;27.10
84755;BME280;74980;50.776;-3.082;2024-01-11T05:15:13;102725.82;;;22.06;27.01
84755;BME280;74980;50.776;-3.082;2024-01-11T05:17:38;102731.05;;;22.04;27.15
84755;BME280;74980;50.776;-3.082;2024-01-11T05:20:04;102728.60;;;22.10;26.82
84755;BME280;74980;50.776;-3.082;2024-01-11T05:22:29;102726.06;;;22.35;26.90
84755;BME280;74980;50.776;-3.082;2024-01-11T05:24:54;102724.75;;;22.16;26.97
84755;BME280;74980;50.776;-3.082;2024-01-11T05:27:20;102725.79;;;22.38;26.70
84755;BME280;74980;50.776;-3.082;2024-01-11T05:29:46;102725.72;;;22.56;26.76
84755;BME280;74980;50.776;-3.082;2024-01-11T05:32:11;102722.97;;;22.19;26.69
84755;BME280;74980;50.776;-3.082;2024-01-11T05:34:37;102721.12;;;22.45;26.61
84755;BME280;74980;50.776;-3.082;2024-01-11T05:37:02;102717.32;;;22.53;26.49
84755;BME280;74980;50.776;-3.082;2024-01-11T05:39:28;102721.42;;;22.34;26.75
84755;BME280;74980;50.776;-3.082;2024-01-11T05:41:53;102727.24;;;22.36;26.55
84755;BME280;74980;50.776;-3.082;2024-01-11T05:44:19;102727.54;;;22.23;26.73
84755;BME280;74980;50.776;-3.082;2024-01-11T05:46:44;102728.16;;;22.40;26.52
84755;BME280;74980;50.776;-3.082;2024-01-11T05:49:10;102728.31;;;22.76;26.37
84755;BME280;74980;50.776;-3.082;2024-01-11T05:51:35;102725.60;;;22.56;26.40
84755;BME280;74980;50.776;-3.082;2024-01-11T05:54:01;102722.54;;;22.24;26.88
84755;BME280;74980;50.776;-3.082;2024-01-11T05:56:26;102725.70;;;22.71;26.99
84755;BME280;74980;50.776;-3.082;2024-01-11T05:58:52;102723.43;;;22.12;27.45
84755;BME280;74980;50.776;-3.082;2024-01-11T06:01:18;102719.48;;;22.06;27.55
84755;BME280;74980;50.776;-3.082;2024-01-11T06:03:43;102728.23;;;22.04;27.63
84755;BME280;74980;50.776;-3.082;2024-01-11T06:06:09;102730.01;;;22.32;27.66
84755;BME280;74980;50.776;-3.082;2024-01-11T06:08:34;102728.27;;;22.10;27.70
84755;BME280;74980;50.776;-3.082;2024-01-11T06:11:00;102729.90;;;22.37;27.70
84755;BME280;74980;50.776;-3.082;2024-01-11T06:13:25;102731.44;;;22.36;27.76
84755;BME280;74980;50.776;-3.082;2024-01-11T06:15:51;102735.88;;;22.62;27.71
84755;BME280;74980;50.776;-3.082;2024-01-11T06:18:16;102737.74;;;22.49;27.67
84755;BME280;74980;50.776;-3.082;2024-01-11T06:20:42;102741.07;;;22.28;27.70
84755;BME280;74980;50.776;-3.082;2024-01-11T06:23:08;102744.69;;;22.21;27.73
84755;BME280;74980;50.776;-3.082;2024-01-11T06:25:33;102753.39;;;22.25;27.74
84755;BME280;74980;50.776;-3.082;2024-01-11T06:27:59;102758.95;;;22.16;28.21
84755;BME280;74980;50.776;-3.082;2024-01-11T06:30:24;102761.47;;;22.41;27.36
84755;BME280;74980;50.776;-3.082;2024-01-11T06:32:50;102761.66;;;22.94;27.42
84755;BME280;74980;50.776;-3.082;2024-01-11T06:35:15;102765.86;;;22.27;27.49
84755;BME280;74980;50.776;-3.082;2024-01-11T06:37:41;102766.81;;;22.47;27.10
84755;BME280;74980;50.776;-3.082;2024-01-11T06:40:07;102772.47;;;22.59;26.88
84755;BME280;74980;50.776;-3.082;2024-01-11T06:42:32;102786.30;;;21.98;27.39
84755;BME280;74980;50.776;-3.082;2024-01-11T06:44:58;102789.60;;;22.10;26.97
84755;BME280;74980;50.776;-3.082;2024-01-11T06:47:23;102790.79;;;22.48;26.98
84755;BME280;74980;50.776;-3.082;2024-01-11T06:49:50;102803.50;;;22.41;26.99
84755;BME280;74980;50.776;-3.082;2024-01-11T06:52:14;102797.42;;;22.43;27.08
84755;BME280;74980;50.776;-3.082;2024-01-11T06:54:39;102796.41;;;22.65;26.79
84755;BME280;74980;50.776;-3.082;2024-01-11T06:57:05;102793.58;;;22.78;26.65
84755;BME280;74980;50.776;-3.082;2024-01-11T06:59:31;102803.32;;;22.62;26.88
84755;BME280;74980;50.776;-3.082;2024-01-11T07:01:56;102819.83;;;22.45;27.15
84755;BME280;74980;50.776;-3.082;2024-01-11T07:04:22;102822.82;;;22.26;27.40
84755;BME280;74980;50.776;-3.082;2024-01-11T07:06:47;102824.55;;;22.18;27.40
84755;BME280;74980;50.776;-3.082;2024-01-11T07:09:13;102819.37;;;22.20;27.47
84755;BME280;74980;50.776;-3.082;2024-01-11T07:11:38;102819.65;;;22.38;27.41
84755;BME280;74980;50.776;-3.082;2024-01-11T07:14:04;102819.98;;;22.34;27.64
84755;BME280;74980;50.776;-3.082;2024-01-11T07:16:30;102822.33;;;22.05;27.69
84755;BME280;74980;50.776;-3.082;2024-01-11T07:18:55;102825.97;;;22.11;27.75
84755;BME280;74980;50.776;-3.082;2024-01-11T07:21:25;102826.29;;;22.33;27.70
84755;BME280;74980;50.776;-3.082;2024-01-11T07:23:46;102824.89;;;22.07;27.75
84755;BME280;74980;50.776;-3.082;2024-01-11T07:26:11;102829.58;;;22.15;27.81
84755;BME280;74980;50.776;-3.082;2024-01-11T07:28:37;102831.41;;;22.31;27.88
84755;BME280;74980;50.776;-3.082;2024-01-11T07:31:03;102847.06;;;22.15;27.89
84755;BME280;74980;50.776;-3.082;2024-01-11T07:33:28;102852.76;;;21.88;28.39
84755;BME280;74980;50.776;-3.082;2024-01-11T07:35:54;102853.40;;;22.27;28.19
84755;BME280;74980;50.776;-3.082;2024-01-11T07:38:19;102863.28;;;22.26;28.02
84755;BME280;74980;50.776;-3.082;2024-01-11T07:40:45;102861.79;;;22.20;27.52
84755;BME280;74980;50.776;-3.082;2024-01-11T07:43:11;102861.07;;;21.80;27.91
84755;BME280;74980;50.776;-3.082;2024-01-11T07:45:36;102863.14;;;22.21;27.49
84755;BME280;74980;50.776;-3.082;2024-01-11T07:48:02;102866.99;;;21.78;29.05
84755;BME280;74980;50.776;-3.082;2024-01-11T07:50:27;102864.47;;;21.01;30.00
84755;BME280;74980;50.776;-3.082;2024-01-11T07:52:52;102868.18;;;21.00;30.24
84755;BME280;74980;50.776;-3.082;2024-01-11T07:55:18;102871.09;;;21.64;29.27
84755;BME280;74980;50.776;-3.082;2024-01-11T07:57:44;102872.16;;;20.86;30.27
84755;BME280;74980;50.776;-3.082;2024-01-11T08:00:21;102877.65;;;21.49;30.15
84755;BME280;74980;50.776;-3.082;2024-01-11T08:02:35;102884.16;;;20.67;30.42
84755;BME280;74980;50.776;-3.082;2024-01-11T08:05:00;102889.65;;;21.06;30.47
84755;BME280;74980;50.776;-3.082;2024-01-11T08:07:26;102896.34;;;21.46;29.96
84755;BME280;74980;50.776;-3.082;2024-01-11T08:09:51;102898.24;;;21.39;30.25
84755;BME280;74980;50.776;-3.082;2024-01-11T08:12:17;102908.10;;;21.37;30.28
84755;BME280;74980;50.776;-3.082;2024-01-11T08:14:43;102912.22;;;21.16;30.40
84755;BME280;74980;50.776;-3.082;2024-01-11T08:17:08;102909.83;;;21.17;30.27
84755;BME280;74980;50.776;-3.082;2024-01-11T08:19:34;102912.47;;;21.14;30.18
84755;BME280;74980;50.776;-3.082;2024-01-11T08:21:59;102910.86;;;21.01;30.48
84755;BME280;74980;50.776;-3.082;2024-01-11T08:24:25;102912.14;;;21.10;30.51
84755;BME280;74980;50.776;-3.082;2024-01-11T08:26:50;102906.87;;;20.62;31.01
84755;BME280;74980;50.776;-3.082;2024-01-11T08:29:16;102905.86;;;21.96;29.25
84755;BME280;74980;50.776;-3.082;2024-01-11T08:31:41;102911.47;;;22.17;28.75
84755;BME280;74980;50.776;-3.082;2024-01-11T08:34:07;102913.65;;;21.93;28.96
84755;BME280;74980;50.776;-3.082;2024-01-11T08:36:35;102921.57;;;22.19;28.52
84755;BME280;74980;50.776;-3.082;2024-01-11T08:38:58;102922.63;;;21.56;29.60
84755;BME280;74980;50.776;-3.082;2024-01-11T08:41:24;102931.94;;;21.55;29.63
84755;BME280;74980;50.776;-3.082;2024-01-11T08:43:49;102931.03;;;20.78;30.61
84755;BME280;74980;50.776;-3.082;2024-01-11T08:48:40;102927.23;;;20.87;30.76
84755;BME280;74980;50.776;-3.082;2024-01-11T08:51:06;102929.17;;;20.64;31.07
84755;BME280;74980;50.776;-3.082;2024-01-11T08:53:31;102930.29;;;21.18;30.52
84755;BME280;74980;50.776;-3.082;2024-01-11T08:55:57;102931.00;;;21.13;30.56
84755;BME280;74980;50.776;-3.082;2024-01-11T08:58:22;102935.55;;;21.15;30.70
84755;BME280;74980;50.776;-3.082;2024-01-11T09:00:48;102935.55;;;22.23;29.24
84755;BME280;74980;50.776;-3.082;2024-01-11T09:03:13;102940.61;;;22.19;28.86
84755;BME280;74980;50.776;-3.082;2024-01-11T09:05:39;102941.05;;;21.72;29.95
84755;BME280;74980;50.776;-3.082;2024-01-11T09:08:04;102941.91;;;21.52;30.22
84755;BME280;74980;50.776;-3.082;2024-01-11T09:10:30;102943.87;;;22.51;28.84
84755;BME280;74980;50.776;-3.082;2024-01-11T09:12:55;102945.58;;;21.98;29.17
84755;BME280;74980;50.776;-3.082;2024-01-11T09:15:22;102943.99;;;22.52;28.67
84755;BME280;74980;50.776;-3.082;2024-01-11T09:17:46;102952.96;;;21.88;29.42
84755;BME280;74980;50.776;-3.082;2024-01-11T09:20:13;102945.07;;;22.69;28.63
84755;BME280;74980;50.776;-3.082;2024-01-11T09:22:38;102944.04;;;21.09;30.39
84755;BME280;74980;50.776;-3.082;2024-01-11T09:25:03;102949.50;;;21.89;29.52
84755;BME280;74980;50.776;-3.082;2024-01-11T09:27:28;102947.75;;;20.77;31.04
84755;BME280;74980;50.776;-3.082;2024-01-11T09:29:54;102954.10;;;21.02;30.98
84755;BME280;74980;50.776;-3.082;2024-01-11T09:32:19;102951.84;;;20.77;31.19
84755;BME280;74980;50.776;-3.082;2024-01-11T09:34:45;102961.65;;;21.15;30.53
84755;BME280;74980;50.776;-3.082;2024-01-11T09:37:11;102966.30;;;20.91;30.74
84755;BME280;74980;50.776;-3.082;2024-01-11T09:39:36;102968.10;;;21.45;30.53
84755;BME280;74980;50.776;-3.082;2024-01-11T09:42:05;102968.38;;;22.17;29.60
84755;BME280;74980;50.776;-3.082;2024-01-11T09:44:28;102973.07;;;21.50;30.04
84755;BME280;74980;50.776;-3.082;2024-01-11T09:46:53;102975.30;;;21.82;30.06
84755;BME280;74980;50.776;-3.082;2024-01-11T09:49:21;102979.99;;;21.62;29.94
84755;BME280;74980;50.776;-3.082;2024-01-11T09:51:46;102984.27;;;22.83;28.59
84755;BME280;74980;50.776;-3.082;2024-01-11T09:54:09;102989.21;;;21.09;30.61
84755;BME280;74980;50.776;-3.082;2024-01-11T09:56:35;102995.34;;;21.44;30.49
84755;BME280;74980;50.776;-3.082;2024-01-11T09:59:01;103001.74;;;21.56;29.73
84755;BME280;74980;50.776;-3.082;2024-01-11T10:01:27;102999.77;;;22.52;28.97
84755;BME280;74980;50.776;-3.082;2024-01-11T10:03:52;103006.20;;;22.73;28.67
84755;BME280;74980;50.776;-3.082;2024-01-11T10:06:17;103005.84;;;21.15;30.32
84755;BME280;74980;50.776;-3.082;2024-01-11T10:08:42;103011.91;;;20.93;30.61
84755;BME280;74980;50.776;-3.082;2024-01-11T10:11:08;103013.68;;;21.00;31.02
84755;BME280;74980;50.776;-3.082;2024-01-11T10:13:35;103017.53;;;21.24;30.27
84755;BME280;74980;50.776;-3.082;2024-01-11T10:16:05;103020.05;;;21.81;30.36
84755;BME280;74980;50.776;-3.082;2024-01-11T10:18:24;103026.62;;;21.44;29.70
84755;BME280;74980;50.776;-3.082;2024-01-11T10:20:51;103027.83;;;22.24;29.69
84755;BME280;74980;50.776;-3.082;2024-01-11T10:23:17;103032.44;;;21.22;30.28
84755;BME280;74980;50.776;-3.082;2024-01-11T10:25:42;103039.46;;;21.63;30.19
84755;BME280;74980;50.776;-3.082;2024-01-11T10:28:07;103043.34;;;21.33;30.37
84755;BME280;74980;50.776;-3.082;2024-01-11T10:30:33;103048.20;;;20.65;31.29
84755;BME280;74980;50.776;-3.082;2024-01-11T10:33:01;103053.99;;;20.87;31.53
84755;BME280;74980;50.776;-3.082;2024-01-11T10:35:24;103049.98;;;20.93;31.08
84755;BME280;74980;50.776;-3.082;2024-01-11T10:37:50;103052.03;;;21.18;30.80
84755;BME280;74980;50.776;-3.082;2024-01-11T10:40:14;103047.07;;;22.01;29.36
84755;BME280;74980;50.776;-3.082;2024-01-11T10:42:41;103046.27;;;22.06;29.33
84755;BME280;74980;50.776;-3.082;2024-01-11T10:45:07;103047.96;;;21.82;30.27
84755;BME280;74980;50.776;-3.082;2024-01-11T10:47:34;103052.52;;;21.72;29.97
84755;BME280;74980;50.776;-3.082;2024-01-11T10:49:57;103053.15;;;22.10;29.42
84755;BME280;74980;50.776;-3.082;2024-01-11T10:52:26;103052.40;;;22.19;29.51
84755;BME280;74980;50.776;-3.082;2024-01-11T10:54:48;103057.73;;;21.67;29.74
84755;BME280;74980;50.776;-3.082;2024-01-11T10:57:13;103059.64;;;21.45;30.14
84755;BME280;74980;50.776;-3.082;2024-01-11T10:59:39;103060.72;;;22.37;29.25
84755;BME280;74980;50.776;-3.082;2024-01-11T11:02:07;103058.35;;;21.93;29.48
84755;BME280;74980;50.776;-3.082;2024-01-11T11:04:30;103060.36;;;21.95;29.40
84755;BME280;74980;50.776;-3.082;2024-01-11T11:06:59;103062.63;;;21.90;29.52
84755;BME280;74980;50.776;-3.082;2024-01-11T11:09:21;103065.39;;;21.92;29.56
84755;BME280;74980;50.776;-3.082;2024-01-11T11:11:46;103071.13;;;22.11;29.58
84755;BME280;74980;50.776;-3.082;2024-01-11T11:14:13;103074.96;;;21.86;29.40
84755;BME280;74980;50.776;-3.082;2024-01-11T11:16:37;103085.72;;;21.51;29.87
84755;BME280;74980;50.776;-3.082;2024-01-11T11:19:02;103086.12;;;22.20;28.88
84755;BME280;74980;50.776;-3.082;2024-01-11T11:21:28;103088.81;;;22.51;28.84
84755;BME280;74980;50.776;-3.082;2024-01-11T11:23:54;103091.02;;;21.85;29.62
84755;BME280;74980;50.776;-3.082;2024-01-11T11:26:20;103093.26;;;22.26;29.08
84755;BME280;74980;50.776;-3.082;2024-01-11T11:28:44;103090.03;;;21.84;29.66
84755;BME280;74980;50.776;-3.082;2024-01-11T11:31:10;103088.79;;;22.02;29.21
84755;BME280;74980;50.776;-3.082;2024-01-11T11:33:35;103083.42;;;21.62;30.04
84755;BME280;74980;50.776;-3.082;2024-01-11T11:36:02;103082.65;;;21.81;29.93
84755;BME280;74980;50.776;-3.082;2024-01-11T11:38:28;103083.12;;;22.30;29.61
84755;BME280;74980;50.776;-3.082;2024-01-11T11:40:53;103080.47;;;22.18;29.76
84755;BME280;74980;50.776;-3.082;2024-01-11T11:43:19;103075.30;;;23.17;27.93
84755;BME280;74980;50.776;-3.082;2024-01-11T11:45:44;103080.42;;;23.05;27.94
84755;BME280;74980;50.776;-3.082;2024-01-11T11:50:34;103078.46;;;22.71;28.22
84755;BME280;74980;50.776;-3.082;2024-01-11T11:53:00;103077.73;;;22.19;28.40
84755;BME280;74980;50.776;-3.082;2024-01-11T11:55:27;103074.61;;;22.73;27.60
84755;BME280;74980;50.776;-3.082;2024-01-11T11:57:51;103073.62;;;22.59;27.87
84755;BME280;74980;50.776;-3.082;2024-01-11T12:00:17;103070.86;;;23.01;27.97
84755;BME280;74980;50.776;-3.082;2024-01-11T12:02:42;103067.85;;;23.17;27.78
84755;BME280;74980;50.776;-3.082;2024-01-11T12:05:09;103069.52;;;23.16;27.78
84755;BME280;74980;50.776;-3.082;2024-01-11T12:07:33;103074.14;;;22.85;27.96
84755;BME280;74980;50.776;-3.082;2024-01-11T12:09:58;103074.75;;;23.04;27.76
84755;BME280;74980;50.776;-3.082;2024-01-11T12:12:24;103077.74;;;22.93;27.66
84755;BME280;74980;50.776;-3.082;2024-01-11T12:14:49;103072.56;;;23.32;27.73
84755;BME280;74980;50.776;-3.082;2024-01-11T12:17:15;103079.29;;;22.97;27.73
84755;BME280;74980;50.776;-3.082;2024-01-11T12:19:40;103079.55;;;23.20;27.72
84755;BME280;74980;50.776;-3.082;2024-01-11T12:22:06;103082.00;;;22.99;27.63
84755;BME280;74980;50.776;-3.082;2024-01-11T12:24:31;103082.86;;;23.15;27.57
84755;BME280;74980;50.776;-3.082;2024-01-11T12:26:57;103077.02;;;22.90;27.49
84755;BME280;74980;50.776;-3.082;2024-01-11T12:29:23;103078.65;;;22.80;27.84
84755;BME280;74980;50.776;-3.082;2024-01-11T12:31:48;103085.08;;;22.93;28.00
84755;BME280;74980;50.776;-3.082;2024-01-11T12:34:14;103084.80;;;23.14;27.63
84755;BME280;74980;50.776;-3.082;2024-01-11T12:36:39;103086.58;;;22.92;27.72
84755;BME280;74980;50.776;-3.082;2024-01-11T12:39:04;103089.13;;;22.96;27.53